Time;durP1;ratioP1;P1;durP2;ratioP2;P2;SDS_P1;SDS_P2;PMS_P1;PMS_P2;Temp;Humidity;BMP_temperature;BMP_pressure;BME280_temperature;BME280_humidity;BME280_pressure;Samples;Min_cycle;Max_cycle;Signal;HPM_P1;HPM_P2
2021/07/14 00:01:33;;;;;;;14.15;6.33;;;;;;;19.84;70.58;100733.18;1843105;77;21145;-63
2021/07/14 00:04:01;;;;;;;17.30;6.37;;;;;;;19.80;70.73;100735.73;1843234;77;21117;-63
2021/07/14 00:06:30;;;;;;;11.80;6.30;;;;;;;19.76;70.82;100726.27;1842948;77;21078;-63
2021/07/14 00:08:59;;;;;;;15.05;7.72;;;;;;;19.72;70.87;100727.45;1843149;78;21054;-63
2021/07/14 00:11:30;;;;;;;15.68;7.05;;;;;;;19.66;71.05;100726.94;1843407;77;21066;-63
2021/07/14 00:14:14;;;;;;;20.30;8.18;;;;;;;19.62;71.06;100724.16;1843031;77;21070;-62
2021/07/14 00:22:10;;;;;;;14.10;8.15;;;;;;;19.48;71.62;100729.20;1843066;77;21114;-62
2021/07/14 00:24:35;;;;;;;13.98;8.48;;;;;;;19.39;72.23;100725.06;1842490;78;21553;-63
2021/07/14 00:27:06;;;;;;;19.30;7.65;;;;;;;19.29;72.30;100731.10;1843028;77;21560;-63
2021/07/14 00:29:37;;;;;;;16.00;8.53;;;;;;;19.22;72.54;100735.70;1843139;77;21047;-63
2021/07/14 00:32:07;;;;;;;19.75;7.87;;;;;;;19.15;72.42;100733.95;1843132;77;21054;-62
2021/07/14 00:34:35;;;;;;;13.48;7.58;;;;;;;19.05;72.72;100735.60;1842957;77;21051;-63
2021/07/14 00:37:04;;;;;;;15.05;9.13;;;;;;;18.95;73.05;100739.94;1843013;77;21019;-63
2021/07/14 00:39:33;;;;;;;14.15;7.85;;;;;;;18.92;72.98;100742.33;1843006;77;21023;-63
2021/07/14 00:42:02;;;;;;;14.15;9.05;;;;;;;18.88;72.98;100744.87;1843278;77;21070;-62
2021/07/14 00:44:31;;;;;;;13.93;8.45;;;;;;;18.89;72.68;100743.91;1842985;77;21125;-62
2021/07/14 00:47:02;;;;;;;25.43;7.33;;;;;;;18.83;72.86;100746.55;1842918;77;21071;-62
2021/07/14 00:49:32;;;;;;;13.15;6.95;;;;;;;18.79;73.01;100751.69;1843118;77;21117;-62
2021/07/14 00:52:01;;;;;;;17.12;7.62;;;;;;;18.75;73.01;100751.55;1843096;77;21350;-62
2021/07/14 00:54:30;;;;;;;13.35;6.70;;;;;;;18.70;73.25;100751.03;1842866;78;21047;-63
2021/07/14 00:56:59;;;;;;;13.60;6.05;;;;;;;18.63;73.36;100753.31;1843116;77;21144;-62
2021/07/14 00:59:28;;;;;;;14.78;7.10;;;;;;;18.60;73.35;100752.19;1842872;78;21066;-63
2021/07/14 01:01:56;;;;;;;16.20;6.33;;;;;;;18.58;73.42;100750.61;1843167;77;21075;-63
2021/07/14 01:04:34;;;;;;;14.35;5.92;;;;;;;18.52;73.52;100760.75;1843010;77;21124;-63
2021/07/14 01:07:27;;;;;;;16.05;6.20;;;;;;;18.54;73.35;100757.13;1842990;77;21027;-63
2021/07/14 01:10:14;;;;;;;11.40;6.17;;;;;;;18.43;73.67;100764.57;1842488;77;21075;-63
2021/07/14 01:13:00;;;;;;;18.85;7.35;;;;;;;18.43;73.67;100764.57;1843215;77;21970;-63
2021/07/14 01:15:30;;;;;;;18.15;7.10;;;;;;;18.43;73.62;100757.41;1842961;77;21134;-63
2021/07/14 01:18:04;;;;;;;14.38;6.00;;;;;;;18.40;73.68;100764.28;1843165;77;21074;-63
2021/07/14 01:20:42;;;;;;;17.02;7.12;;;;;;;18.39;73.61;100761.27;1829598;77;21450;-63
2021/07/14 01:23:14;;;;;;;17.52;7.97;;;;;;;18.33;73.61;100757.69;1842857;78;21058;-63
2021/07/14 01:25:55;;;;;;;18.42;6.78;;;;;;;18.28;73.74;100757.19;1842831;77;21083;-63
2021/07/14 01:28:27;;;;;;;11.90;5.50;;;;;;;18.24;73.80;100753.89;1841613;78;21082;-63
2021/07/14 01:30:56;;;;;;;13.68;5.85;;;;;;;18.23;73.69;100759.32;1842908;77;21110;-63
2021/07/14 01:33:31;;;;;;;14.28;4.95;;;;;;;18.20;73.57;100763.03;1843140;77;21148;-63
2021/07/14 01:36:02;;;;;;;17.85;5.70;;;;;;;18.18;73.41;100766.78;1842655;77;21497;-63
2021/07/14 01:38:34;;;;;;;13.25;5.30;;;;;;;18.15;73.54;100767.86;1843111;77;21532;-63
2021/07/14 01:41:05;;;;;;;12.25;5.95;;;;;;;18.17;73.39;100760.61;1843087;77;21105;-63
2021/07/14 01:43:43;;;;;;;13.43;5.30;;;;;;;18.21;73.36;100762.58;1843216;77;21034;-63
2021/07/14 01:46:13;;;;;;;11.38;5.45;;;;;;;18.20;73.43;100754.20;1818273;78;21600;-63
2021/07/14 01:48:44;;;;;;;11.83;5.40;;;;;;;18.22;73.27;100747.81;1842957;78;21172;-63
2021/07/14 01:51:14;;;;;;;10.53;5.22;;;;;;;18.23;73.17;100747.33;1842897;78;21050;-63
2021/07/14 01:53:45;;;;;;;12.85;5.15;;;;;;;18.23;73.11;100750.84;1842973;78;21029;-63
2021/07/14 01:56:15;;;;;;;10.53;4.90;;;;;;;18.20;73.28;100747.53;1843046;78;21121;-63
2021/07/14 01:58:47;;;;;;;16.85;6.47;;;;;;;18.20;73.20;100750.20;1842903;78;21505;-63
2021/07/14 02:01:19;;;;;;;14.03;5.85;;;;;;;18.12;73.49;100750.26;1843029;78;21054;-63
2021/07/14 02:06:39;;;;;;;14.60;6.35;;;;;;;18.04;73.56;100761.95;1843044;78;21156;-63
2021/07/14 02:09:07;;;;;;;13.68;6.03;;;;;;;18.02;73.45;100773.20;1843045;78;21050;-63
2021/07/14 02:11:36;;;;;;;12.85;6.45;;;;;;;17.99;73.53;100761.91;1842943;78;21117;-63
2021/07/14 02:14:06;;;;;;;16.48;5.90;;;;;;;17.94;73.67;100763.54;1842934;77;21046;-63
2021/07/14 02:16:36;;;;;;;21.23;6.12;;;;;;;17.96;73.57;100767.44;1842840;78;21497;-63
2021/07/14 02:19:06;;;;;;;17.77;6.60;;;;;;;17.97;73.53;100766.48;1843034;78;21031;-63
2021/07/14 02:21:35;;;;;;;16.93;6.03;;;;;;;17.96;73.53;100764.77;1842944;78;21485;-63
2021/07/14 02:24:05;;;;;;;13.62;6.03;;;;;;;17.94;73.59;100765.75;1842955;78;21465;-63
2021/07/14 02:26:34;;;;;;;16.60;5.33;;;;;;;17.94;73.60;100777.73;1842944;77;21086;-63
2021/07/14 02:29:04;;;;;;;11.20;4.90;;;;;;;17.96;73.43;100784.26;1842798;77;21051;-63
2021/07/14 02:31:34;;;;;;;16.07;5.42;;;;;;;17.92;73.34;100780.11;1842953;77;21121;-63
2021/07/14 02:34:03;;;;;;;15.25;4.80;;;;;;;17.88;73.41;100767.97;1842920;78;21547;-63
2021/07/14 02:36:34;;;;;;;18.32;5.72;;;;;;;17.90;73.60;100769.55;1843026;78;21058;-63
2021/07/14 02:39:06;;;;;;;13.95;5.75;;;;;;;17.97;73.60;100759.34;1842942;78;21188;-63
2021/07/14 02:41:52;;;;;;;20.32;9.68;;;;;;;18.08;73.35;100762.59;1842829;78;21082;-63
2021/07/14 02:44:22;;;;;;;22.17;15.38;;;;;;;18.21;73.06;100770.58;1842887;77;21498;-63
2021/07/14 02:46:54;;;;;;;18.90;11.38;;;;;;;18.31;72.75;100771.61;1843002;78;21461;-63
2021/07/14 02:49:27;;;;;;;28.05;14.93;;;;;;;18.42;72.46;100769.02;1842942;78;21517;-63
2021/07/14 02:51:55;;;;;;;;;;;;;;;18.52;71.95;100776.75;1845599;77;21055;-64
2021/07/14 02:54:27;;;;;;;13.95;7.17;;;;;;;18.61;71.15;100770.37;1842926;78;20111;-63
2021/07/14 02:57:02;;;;;;;14.33;5.20;;;;;;;18.65;71.09;100782.05;1843122;78;21465;-63
2021/07/14 02:59:40;;;;;;;10.90;5.05;;;;;;;18.71;70.82;100782.93;1842944;77;21031;-63
2021/07/14 03:02:10;;;;;;;12.63;4.80;;;;;;;18.81;70.72;100787.62;1842925;78;21144;-63
2021/07/14 03:04:45;;;;;;;14.05;5.08;;;;;;;18.92;70.53;100781.51;1842884;78;21023;-63
2021/07/14 03:07:15;;;;;;;10.63;4.58;;;;;;;19.10;70.39;100785.48;1842960;78;21055;-63
2021/07/14 03:09:45;;;;;;;9.18;4.08;;;;;;;19.26;70.02;100782.05;1842877;78;21157;-64
2021/07/14 03:12:16;;;;;;;10.18;3.50;;;;;;;19.43;69.80;100778.59;1843306;77;21031;-63
2021/07/14 03:14:48;;;;;;;7.75;3.12;;;;;;;19.59;69.44;100789.81;1843006;77;21050;-63
2021/07/14 03:17:18;;;;;;;9.05;3.87;;;;;;;19.70;68.86;100784.99;1842870;77;21094;-63
2021/07/14 03:19:49;;;;;;;11.65;3.50;;;;;;;19.82;68.61;100784.06;1843257;77;21031;-62
2021/07/14 03:22:20;;;;;;;12.50;3.33;;;;;;;19.99;68.36;100780.09;1843060;77;21031;-63
2021/07/14 03:24:49;;;;;;;11.35;3.50;;;;;;;20.16;68.12;100787.25;1842824;78;21505;-63
2021/07/14 03:27:18;;;;;;;11.05;3.50;;;;;;;20.33;67.90;100781.44;1842904;76;21533;-64
2021/07/14 03:29:50;;;;;;;13.60;4.10;;;;;;;20.47;67.35;100784.33;1843228;77;21519;-63
2021/07/14 03:32:19;;;;;;;21.00;4.55;;;;;;;20.57;66.79;100783.13;1843448;77;21479;-63
2021/07/14 03:34:48;;;;;;;9.30;3.80;;;;;;;20.67;66.42;100780.58;1843202;77;21549;-63
2021/07/14 03:37:17;;;;;;;9.63;3.30;;;;;;;20.77;66.15;100780.21;1843085;77;21470;-63
2021/07/14 03:39:48;;;;;;;14.03;4.12;;;;;;;20.82;65.45;100784.21;1843024;77;21051;-65
2021/07/14 03:42:19;;;;;;;14.05;3.60;;;;;;;20.91;65.48;100784.42;1843085;77;21188;-64
2021/07/14 03:44:50;;;;;;;7.78;3.15;;;;;;;21.00;65.05;100789.02;1843298;77;21125;-64
2021/07/14 03:47:20;;;;;;;11.63;3.70;;;;;;;21.15;64.89;100793.59;1843171;77;21047;-64
2021/07/14 03:49:49;;;;;;;10.95;3.10;;;;;;;21.35;64.75;100785.24;1843228;77;21126;-63
2021/07/14 03:52:20;;;;;;;21.02;4.20;;;;;;;21.50;64.22;100783.97;1843008;77;21062;-64
2021/07/14 03:54:50;;;;;;;12.18;3.45;;;;;;;21.59;63.56;100788.55;1843151;78;21058;-64
2021/07/14 03:57:24;;;;;;;7.17;2.70;;;;;;;21.69;63.36;100790.45;1843055;77;21128;-63
2021/07/14 03:59:50;;;;;;;6.95;3.02;;;;;;;21.84;63.02;100783.80;1842030;78;21063;-64
2021/07/14 04:02:20;;;;;;;13.50;3.37;;;;;;;22.03;62.95;100784.88;1842969;77;21519;-63
2021/07/14 04:04:51;;;;;;;14.38;3.60;;;;;;;22.24;63.00;100786.17;1840517;78;21635;-63
2021/07/14 04:07:26;;;;;;;9.23;3.80;;;;;;;22.50;62.70;100774.51;1843094;77;21050;-63
2021/07/14 04:09:57;;;;;;;15.00;4.90;;;;;;;22.70;62.34;100775.41;1842941;77;21203;-62
2021/07/14 04:12:31;;;;;;;12.58;3.75;;;;;;;22.94;61.89;100780.41;1842214;78;21075;-63
2021/07/14 04:15:00;;;;;;;7.75;3.20;;;;;;;23.18;61.26;100779.19;1843092;78;21161;-64
2021/07/14 04:17:30;;;;;;;7.65;2.12;;;;;;;23.42;60.60;100787.66;1842948;76;21050;-67
2021/07/14 04:20:05;;;;;;;11.20;2.70;;;;;;;23.67;59.07;100783.54;1843153;77;21051;-64
2021/07/14 04:22:34;;;;;;;9.43;2.15;;;;;;;23.84;57.21;100798.11;1842973;77;21054;-64
2021/07/14 04:25:08;;;;;;;9.45;2.52;;;;;;;24.08;56.31;100797.61;1843149;76;21554;-64
2021/07/14 04:27:36;;;;;;;8.90;2.75;;;;;;;24.30;55.14;100810.36;1842321;78;21604;-64
2021/07/14 04:30:10;;;;;;;12.55;2.72;;;;;;;24.51;54.29;100804.73;1841860;78;21153;-64
2021/07/14 04:32:39;;;;;;;9.98;2.45;;;;;;;24.81;53.48;100814.41;1838247;78;21058;-64
2021/07/14 04:35:12;;;;;;;13.65;2.77;;;;;;;25.00;52.57;100812.08;1842514;78;21071;-64
2021/07/14 04:37:47;;;;;;;14.75;3.67;;;;;;;25.19;51.63;100810.24;1843392;77;21052;-63
2021/07/14 04:40:16;;;;;;;16.17;2.98;;;;;;;25.39;51.14;100811.80;1841623;78;21063;-64
2021/07/14 04:42:48;;;;;;;14.03;2.62;;;;;;;25.60;50.38;100802.54;1842866;77;21149;-64
2021/07/14 04:45:17;;;;;;;9.88;2.30;;;;;;;25.70;49.07;100801.12;1842706;78;21086;-64
2021/07/14 04:47:46;;;;;;;27.75;4.10;;;;;;;25.86;48.87;100803.07;1843116;77;21638;-64
2021/07/14 04:50:19;;;;;;;15.70;4.20;;;;;;;26.05;48.93;100802.91;1842348;78;21531;-64
2021/07/14 04:52:48;;;;;;;10.72;3.42;;;;;;;26.32;49.15;100796.95;1843263;77;21153;-64
2021/07/14 04:55:19;;;;;;;7.80;2.72;;;;;;;26.61;49.14;100794.42;1843201;77;21015;-64
2021/07/14 04:57:51;;;;;;;17.15;2.60;;;;;;;26.86;47.84;100794.01;1843307;77;21140;-64
2021/07/14 05:00:21;;;;;;;14.68;3.33;;;;;;;27.04;47.59;100796.55;1843397;77;21067;-64
2021/07/14 05:02:50;;;;;;;10.88;2.92;;;;;;;27.25;47.09;100790.17;1843043;77;21136;-64
2021/07/14 05:05:19;;;;;;;11.90;2.95;;;;;;;27.44;46.16;100789.53;1842870;77;21514;-64
2021/07/14 05:07:49;;;;;;;8.23;2.50;;;;;;;27.67;45.92;100785.65;1842983;77;21050;-64
2021/07/14 05:10:24;;;;;;;9.23;3.33;;;;;;;27.88;45.50;100786.45;1843047;77;21055;-64
2021/07/14 05:12:52;;;;;;;12.78;2.85;;;;;;;28.08;45.28;100781.54;1842925;77;21031;-64
2021/07/14 05:15:21;;;;;;;11.73;2.55;;;;;;;28.32;44.79;100786.02;1842701;78;21505;-64
2021/07/14 05:17:49;;;;;;;16.52;2.37;;;;;;;28.54;43.45;100783.60;1842957;77;21079;-65
2021/07/14 05:20:18;;;;;;;17.20;3.00;;;;;;;28.75;43.57;100781.62;1843327;77;21102;-64
2021/07/14 05:22:48;;;;;;;15.58;2.80;;;;;;;28.94;43.12;100785.73;1843094;77;21086;-64
2021/07/14 05:25:17;;;;;;;13.32;3.75;;;;;;;29.00;42.04;100792.64;1843081;77;21567;-64
2021/07/14 05:27:46;;;;;;;12.15;3.62;;;;;;;29.15;41.79;100796.81;1843058;77;21140;-64
2021/07/14 05:30:17;;;;;;;16.17;3.37;;;;;;;29.44;41.62;100793.37;1842881;77;21534;-65
2021/07/14 05:32:46;;;;;;;13.53;3.65;;;;;;;29.63;41.12;100793.36;1843323;77;21043;-64
2021/07/14 05:35:15;;;;;;;18.67;3.52;;;;;;;29.69;40.01;100786.88;1843162;77;21109;-64
2021/07/14 05:37:43;;;;;;;21.87;3.25;;;;;;;29.68;40.28;100791.95;1843115;77;21133;-64
2021/07/14 05:40:13;;;;;;;14.03;3.42;;;;;;;29.76;39.63;100791.92;1843104;77;21058;-64
2021/07/14 05:42:41;;;;;;;12.30;2.77;;;;;;;29.91;39.56;100785.99;1843184;77;21124;-65
2021/07/14 05:45:11;;;;;;;13.22;2.92;;;;;;;30.07;38.54;100784.15;1842995;77;21145;-64
2021/07/14 05:47:39;;;;;;;16.60;3.55;;;;;;;30.14;38.32;100786.45;1843037;77;21055;-64
2021/07/14 05:50:09;;;;;;;12.47;3.05;;;;;;;30.16;37.75;100787.10;1843049;77;21066;-64
2021/07/14 05:52:38;;;;;;;18.27;3.70;;;;;;;30.31;38.02;100786.57;1843346;77;21083;-64
2021/07/14 05:55:09;;;;;;;20.60;3.52;;;;;;;30.46;37.50;100781.67;1843073;77;21125;-64
2021/07/14 05:57:41;;;;;;;10.53;2.70;;;;;;;30.59;37.78;100784.55;1842896;77;21105;-64
2021/07/14 06:00:11;;;;;;;22.00;4.12;;;;;;;30.75;37.36;100781.61;1842948;78;21482;-64
2021/07/14 06:02:40;;;;;;;11.68;2.70;;;;;;;30.98;37.23;100783.34;1843247;77;21046;-64
2021/07/14 06:05:10;;;;;;;10.15;3.30;;;;;;;31.25;36.37;100792.61;1843113;77;21054;-64
2021/07/14 06:07:39;;;;;;;18.15;4.12;;;;;;;31.39;36.22;100786.76;1843054;78;21105;-64
2021/07/14 06:10:09;;;;;;;19.90;3.98;;;;;;;31.49;35.52;100793.28;1842928;77;21570;-64
2021/07/14 06:12:38;;;;;;;18.10;4.10;;;;;;;31.67;34.79;100795.50;1843189;77;21026;-64
2021/07/14 06:15:08;;;;;;;16.85;4.67;;;;;;;31.84;34.91;100788.73;1843068;77;21128;-64
2021/07/14 06:17:36;;;;;;;18.12;4.35;;;;;;;32.14;34.77;100787.16;1843060;77;21031;-64
2021/07/14 06:20:07;;;;;;;12.15;3.98;;;;;;;32.41;35.36;100784.59;1843005;77;21196;-64
2021/07/14 06:22:36;;;;;;;20.75;4.72;;;;;;;32.54;34.34;100785.14;1842902;77;21047;-64
2021/07/14 06:25:06;;;;;;;18.02;4.50;;;;;;;32.51;34.11;100791.85;1843035;77;21204;-64
2021/07/14 06:27:35;;;;;;;16.23;4.05;;;;;;;32.59;33.03;100789.00;1843021;77;21102;-64
2021/07/14 06:30:08;;;;;;;17.82;3.60;;;;;;;32.59;32.33;100787.63;1847573;77;21086;-64
2021/07/14 06:32:36;;;;;;;;;;;;;;;32.66;32.43;100792.56;1853843;77;21594;-64
2021/07/14 06:35:06;;;;;;;22.52;4.10;;;;;;;32.85;32.95;100787.38;1851074;77;20126;-64
2021/07/14 06:37:37;;;;;;;25.68;4.70;;;;;;;32.93;33.42;100789.09;1851411;77;21089;-64
2021/07/14 06:40:07;;;;;;;22.85;5.00;;;;;;;33.05;33.03;100796.47;1851207;77;21128;-64
2021/07/14 06:42:38;;;;;;;22.95;4.30;;;;;;;33.20;32.76;100792.72;1851246;77;21168;-64
2021/07/14 06:45:08;;;;;;;23.55;4.85;;;;;;;33.45;32.52;100796.52;1851493;77;21054;-64
2021/07/14 06:47:38;;;;;;;20.08;4.45;;;;;;;33.54;32.44;100799.89;1851259;77;21059;-64
2021/07/14 06:50:09;;;;;;;14.98;2.87;;;;;;;33.49;32.78;100800.20;1851213;77;21542;-64
2021/07/14 06:52:40;;;;;;;15.83;3.60;;;;;;;33.55;32.34;100792.53;1851363;77;21056;-64
2021/07/14 06:55:10;;;;;;;16.30;3.77;;;;;;;33.63;32.58;100790.43;1851208;77;21042;-64
2021/07/14 06:57:40;;;;;;;14.80;3.20;;;;;;;33.79;31.65;100793.30;1851192;77;21054;-64
2021/07/14 07:00:11;;;;;;;14.65;3.80;;;;;;;33.89;31.21;100796.12;1851173;77;21497;-64
2021/07/14 07:02:40;;;;;;;18.50;3.30;;;;;;;33.80;27.82;100790.03;1851545;77;21128;-64
2021/07/14 07:05:09;;;;;;;10.13;2.60;;;;;;;33.80;27.82;100790.03;1851295;77;21493;-64
2021/07/14 07:07:39;;;;;;;18.67;3.55;;;;;;;33.87;27.97;100792.77;1851330;77;21055;-65
2021/07/14 07:10:08;;;;;;;16.57;3.75;;;;;;;33.83;28.38;100792.34;1844228;77;21650;-63
2021/07/14 07:12:37;;;;;;;17.62;3.10;;;;;;;34.00;29.45;100787.27;1844069;77;21215;-63
2021/07/14 07:15:07;;;;;;;17.10;2.62;;;;;;;34.19;29.10;100782.30;1844273;77;21158;-63
2021/07/14 07:17:35;;;;;;;9.63;2.85;;;;;;;34.18;29.01;100786.63;1843672;78;21142;-63
2021/07/14 07:20:05;;;;;;;15.43;3.62;;;;;;;34.54;29.66;100788.78;1844193;77;21077;-63
2021/07/14 07:22:34;;;;;;;22.15;4.12;;;;;;;34.54;29.66;100780.58;1844209;78;21131;-63
2021/07/14 07:25:03;;;;;;;15.00;3.55;;;;;;;34.53;29.12;100778.06;1844121;77;21143;-63
2021/07/14 07:27:35;;;;;;;14.90;2.98;;;;;;;34.44;29.00;100781.59;1844008;78;21053;-63
2021/07/14 07:30:05;;;;;;;10.05;2.92;;;;;;;34.59;29.50;100782.67;1842554;77;21107;-63
2021/07/14 07:32:35;;;;;;;10.65;2.52;;;;;;;34.88;30.12;100790.00;1825222;77;21059;-63
2021/07/14 07:35:05;;;;;;;13.18;3.08;;;;;;;34.92;30.56;100781.16;1833801;78;21550;-63
2021/07/14 07:37:34;;;;;;;12.23;2.95;;;;;;;34.68;29.38;100788.23;1838350;78;21052;-63
2021/07/14 07:40:04;;;;;;;16.45;2.58;;;;;;;34.68;29.38;100788.23;1838094;78;21135;-63
2021/07/14 07:42:33;;;;;;;8.00;2.62;;;;;;;34.70;29.44;100786.66;1838593;78;21119;-63
2021/07/14 07:45:02;;;;;;;14.98;2.62;;;;;;;34.64;29.36;100776.54;1838477;78;21492;-63
2021/07/14 07:47:32;;;;;;;12.82;2.60;;;;;;;34.70;29.46;100774.34;1838063;78;21092;-62
2021/07/14 07:50:01;;;;;;;10.35;2.42;;;;;;;35.02;29.24;100779.83;1838658;78;21057;-63
2021/07/14 07:52:30;;;;;;;22.00;2.92;;;;;;;35.23;29.40;100780.88;1838560;78;21057;-63
2021/07/14 07:55:00;;;;;;;15.75;2.67;;;;;;;35.34;29.89;100787.00;1838583;78;21084;-63
2021/07/14 07:57:30;;;;;;;13.40;2.75;;;;;;;35.51;29.26;100776.31;1838619;78;21131;-62
2021/07/14 07:59:59;;;;;;;11.57;3.15;;;;;;;35.70;29.77;100771.74;1838692;78;21046;-63
2021/07/14 08:02:28;;;;;;;11.75;2.50;;;;;;;35.76;29.79;100782.33;1838475;78;21097;-63
2021/07/14 08:04:56;;;;;;;12.33;2.95;;;;;;;35.98;29.32;100788.21;1837497;78;21448;-63
2021/07/14 08:07:25;;;;;;;8.78;2.33;;;;;;;36.29;29.24;100782.31;1838555;78;21068;-63
2021/07/14 08:09:54;;;;;;;10.53;3.17;;;;;;;36.47;29.07;100780.92;1838654;78;21155;-63
2021/07/14 08:12:22;;;;;;;18.70;3.00;;;;;;;36.47;29.07;100780.92;1838562;78;21468;-63
2021/07/14 08:14:51;;;;;;;17.65;2.72;;;;;;;36.77;29.43;100778.75;1838527;78;21029;-63
2021/07/14 08:17:19;;;;;;;18.77;3.27;;;;;;;36.89;28.77;100782.39;1838532;78;21092;-63
2021/07/14 08:19:50;;;;;;;14.98;3.70;;;;;;;36.75;28.21;100774.58;1838584;78;21076;-63
2021/07/14 08:22:19;;;;;;;14.15;2.50;;;;;;;36.60;28.84;100770.86;1838604;78;21053;-63
2021/07/14 08:24:48;;;;;;;21.17;3.27;;;;;;;36.66;28.97;100768.55;1838578;78;21073;-63
2021/07/14 08:27:17;;;;;;;16.40;3.05;;;;;;;36.75;28.23;100772.67;1837792;78;21558;-63
2021/07/14 08:29:45;;;;;;;14.95;3.05;;;;;;;36.63;28.17;100767.62;1838479;78;21136;-63
2021/07/14 08:32:15;;;;;;;18.40;2.90;;;;;;;36.35;28.30;100770.42;1810453;78;21166;-63
2021/07/14 08:34:44;;;;;;;11.83;2.85;;;;;;;36.53;27.82;100768.19;1804896;79;21101;-63
2021/07/14 08:37:13;;;;;;;11.53;2.62;;;;;;;36.63;27.84;100775.86;1804937;79;21103;-63
2021/07/14 08:39:42;;;;;;;8.63;2.17;;;;;;;36.64;27.88;100772.06;1804877;79;21531;-63
2021/07/14 08:42:13;;;;;;;16.57;3.17;;;;;;;36.57;27.99;100774.05;1804808;79;21592;-63
2021/07/14 08:44:43;;;;;;;13.48;3.25;;;;;;;36.53;28.76;100770.94;1805141;79;21079;-63
2021/07/14 08:47:14;;;;;;;15.65;2.77;;;;;;;36.75;28.24;100771.30;1804920;79;21080;-63
2021/07/14 08:49:44;;;;;;;13.15;3.30;;;;;;;36.82;28.04;100777.53;1805010;79;21035;-63
2021/07/14 08:52:15;;;;;;;14.28;2.98;;;;;;;36.73;27.42;100769.33;1804887;79;21087;-63
2021/07/14 08:54:45;;;;;;;12.40;2.62;;;;;;;36.49;27.99;100771.93;1804889;78;21121;-63
2021/07/14 08:57:16;;;;;;;11.00;2.52;;;;;;;36.50;28.00;100772.25;1805002;79;21075;-63
2021/07/14 08:59:46;;;;;;;12.60;2.80;;;;;;;36.73;28.12;100769.33;1805035;79;21029;-62
2021/07/14 09:02:15;;;;;;;9.23;2.20;;;;;;;37.03;27.37;100765.72;1804890;79;21100;-63
2021/07/14 09:04:44;;;;;;;6.72;2.50;;;;;;;36.94;27.85;100768.49;1809918;78;21588;-63
2021/07/14 09:07:15;;;;;;;15.23;2.70;;;;;;;36.74;28.17;100777.84;1804522;79;21510;-64
2021/07/14 09:09:44;;;;;;;19.48;2.87;;;;;;;36.56;28.05;100775.11;1805145;79;21098;-64
2021/07/14 09:12:13;;;;;;;8.88;2.75;;;;;;;36.40;28.48;100778.80;1804630;79;21150;-63
2021/07/14 09:14:43;;;;;;;9.60;2.30;;;;;;;36.40;28.78;100780.17;1804578;79;21146;-63
2021/07/14 09:17:26;;;;;;;12.70;2.85;;;;;;;36.30;29.36;100771.12;1804804;79;21059;-63
2021/07/14 09:20:03;;;;;;;10.15;2.65;;;;;;;36.42;29.42;100772.55;1804902;79;21122;-64
2021/07/14 09:22:32;;;;;;;13.65;2.45;;;;;;;36.60;29.51;100777.71;1803128;79;21036;-63
2021/07/14 09:25:04;;;;;;;11.18;2.85;;;;;;;36.67;29.58;100772.47;1805035;78;21133;-63
2021/07/14 09:27:38;;;;;;;9.68;2.65;;;;;;;36.81;29.19;100772.27;1801372;79;21028;-63
2021/07/14 09:30:16;;;;;;;11.63;3.60;;;;;;;37.09;28.23;100763.39;1804762;79;21114;-63
2021/07/14 09:32:55;;;;;;;10.60;2.95;;;;;;;37.09;28.23;100763.39;1804820;78;21091;-63
2021/07/14 09:35:30;;;;;;;7.22;2.85;;;;;;;37.15;29.29;100765.76;1804901;79;21083;-63
2021/07/14 09:38:02;;;;;;;15.20;2.95;;;;;;;37.12;28.41;100769.79;1804950;79;21095;-62
2021/07/14 09:40:31;;;;;;;7.70;2.70;;;;;;;36.94;28.70;100767.12;1804945;79;21122;-62
2021/07/14 09:43:06;;;;;;;11.48;2.87;;;;;;;36.65;28.76;100765.48;1804995;79;21076;-64
2021/07/14 09:45:51;;;;;;;12.50;3.58;;;;;;;36.44;28.60;100769.03;1804936;79;21083;-63
2021/07/14 09:48:31;;;;;;;17.50;3.40;;;;;;;36.42;28.53;100767.06;1804861;79;21072;-63
2021/07/14 09:51:09;;;;;;;17.07;4.03;;;;;;;36.49;29.04;100760.96;1804748;79;21640;-63
2021/07/14 09:53:37;;;;;;;16.67;4.42;;;;;;;36.64;28.98;100761.91;1804703;79;21096;-62
2021/07/14 09:56:12;;;;;;;14.35;3.17;;;;;;;36.73;29.29;100765.21;1804934;79;21068;-62
2021/07/14 09:58:41;;;;;;;23.35;15.08;;;;;;;36.85;28.87;100759.75;1801985;79;21558;-62
2021/07/14 10:01:16;;;;;;;20.15;3.52;;;;;;;36.85;29.04;100762.49;1804956;79;21059;-62
2021/07/14 10:03:53;;;;;;;19.45;4.30;;;;;;;37.00;28.66;100760.69;1804844;79;21079;-63
2021/07/14 10:06:26;;;;;;;14.23;3.47;;;;;;;36.99;29.12;100760.40;1804884;79;21531;-63
2021/07/14 10:08:57;;;;;;;17.17;3.70;;;;;;;36.93;28.67;100755.83;1804931;79;21143;-63
2021/07/14 10:11:27;;;;;;;8.58;3.15;;;;;;;36.83;28.76;100761.89;1804349;79;21055;-63
2021/07/14 10:14:08;;;;;;;13.32;3.12;;;;;;;36.52;28.64;100753.66;1804777;79;21088;-64
2021/07/14 10:16:42;;;;;;;8.45;2.50;;;;;;;36.39;29.52;100753.84;1804869;79;21124;-63
2021/07/14 10:19:17;;;;;;;12.80;3.37;;;;;;;36.22;29.03;100761.00;1804832;79;21157;-63
2021/07/14 10:21:48;;;;;;;13.72;3.58;;;;;;;35.89;28.76;100751.22;1804868;79;21150;-63
2021/07/14 10:24:19;;;;;;;10.90;3.67;;;;;;;35.58;28.89;100753.00;1805001;79;21360;-64
2021/07/14 10:26:53;;;;;;;11.60;3.58;;;;;;;35.42;29.23;100745.35;1804947;79;21145;-63
2021/07/14 10:29:22;;;;;;;11.30;4.05;;;;;;;35.24;29.14;100752.97;1804908;79;21085;-64
2021/07/14 10:31:52;;;;;;;13.70;3.62;;;;;;;34.97;29.28;100746.28;1807215;77;21641;-64
2021/07/14 10:34:22;;;;;;;19.60;3.87;;;;;;;34.87;29.65;100742.67;1838489;78;21131;-64
2021/07/14 10:36:55;;;;;;;12.88;3.77;;;;;;;35.01;31.16;100746.17;1825462;78;21058;-64
2021/07/14 10:39:26;;;;;;;16.32;5.20;;;;;;;35.12;30.40;100741.86;1824873;78;21132;-63
2021/07/14 10:41:56;;;;;;;18.30;4.37;;;;;;;35.23;30.36;100743.93;1828652;78;21143;-63
2021/07/14 10:44:25;;;;;;;16.27;4.20;;;;;;;35.22;30.26;100746.89;1838574;78;21057;-63
2021/07/14 10:46:56;;;;;;;18.35;4.45;;;;;;;35.21;30.06;100743.83;1838417;78;21126;-63
2021/07/14 10:49:25;;;;;;;18.52;4.20;;;;;;;35.14;30.80;100746.61;1838764;77;21536;-63
2021/07/14 10:51:55;;;;;;;23.02;4.83;;;;;;;35.14;30.80;100746.61;1838613;78;21578;-63
2021/07/14 10:54:26;;;;;;;13.68;4.42;;;;;;;35.06;31.24;100739.48;1838661;78;21048;-63
2021/07/14 10:56:55;;;;;;;13.28;4.28;;;;;;;35.07;30.97;100740.34;1838615;78;21056;-63
2021/07/14 10:59:24;;;;;;;10.28;4.87;;;;;;;34.94;31.06;100734.44;1838580;77;21500;-63
2021/07/14 11:01:55;;;;;;;18.12;4.72;;;;;;;34.72;31.22;100735.31;1838522;78;21496;-64
2021/07/14 11:04:30;;;;;;;15.98;5.22;;;;;;;34.41;31.61;100737.74;1838659;78;21061;-64
2021/07/14 11:07:02;;;;;;;11.35;4.15;;;;;;;34.27;32.33;100729.83;1838599;78;21617;-63
2021/07/14 11:09:38;;;;;;;13.00;4.55;;;;;;;34.14;32.43;100727.95;1838691;78;21156;-63
2021/07/14 11:12:10;;;;;;;13.38;4.90;;;;;;;33.91;32.63;100724.37;1838515;78;21186;-66
2021/07/14 11:14:44;;;;;;;16.37;5.20;;;;;;;33.81;32.72;100717.99;1838841;78;21052;-63
2021/07/14 11:17:13;;;;;;;14.45;4.92;;;;;;;33.82;33.46;100719.66;1838573;77;21061;-63
2021/07/14 11:19:53;;;;;;;12.25;5.17;;;;;;;33.90;33.45;100718.58;1838681;78;21067;-63
2021/07/14 11:22:45;;;;;;;21.42;5.45;;;;;;;33.90;33.47;100718.58;1838572;78;21162;-63
2021/07/14 11:25:27;;;;;;;17.85;4.95;;;;;;;33.90;33.83;100714.48;1838553;78;21037;-63
2021/07/14 11:28:01;;;;;;;13.75;4.80;;;;;;;33.96;33.90;100719.11;1838585;78;21132;-63
2021/07/14 11:30:32;;;;;;;16.45;6.15;;;;;;;33.93;34.09;100716.80;1838598;78;21527;-63
2021/07/14 11:33:02;;;;;;;14.00;4.33;;;;;;;33.89;33.97;100712.28;1831062;78;21111;-64
2021/07/14 11:35:47;;;;;;;22.62;6.12;;;;;;;33.87;34.42;100714.94;1804415;79;21812;-63
2021/07/14 11:38:21;;;;;;;18.00;5.00;;;;;;;33.80;34.46;100708.94;1797151;78;21233;-63
2021/07/14 11:40:53;;;;;;;18.27;5.30;;;;;;;33.84;34.49;100707.98;1804358;79;21063;-63
2021/07/14 11:43:24;;;;;;;21.25;5.70;;;;;;;33.84;34.60;100695.70;1803884;79;21084;-63
2021/07/14 11:45:56;;;;;;;18.75;5.90;;;;;;;33.85;34.46;100698.22;1804713;79;21131;-63